sensor_id;sensor_type;location;lat;lon;timestamp;pressure;altitude;pressure_sealevel;temperature;humidity
55113;BME280;41006;50.920;3.456;2022-08-19T00:00:06;101211.69;;;25.35;56.82
55113;BME280;41006;50.920;3.456;2022-08-19T00:00:38;101212.81;;;25.18;57.05
55113;BME280;41006;50.920;3.456;2022-08-19T00:01:09;101208.78;;;24.98;58.29
55113;BME280;41006;50.920;3.456;2022-08-19T00:01:40;101207.78;;;24.99;58.03
55113;BME280;41006;50.920;3.456;2022-08-19T00:02:13;101208.16;;;25.20;57.81
55113;BME280;41006;50.920;3.456;2022-08-19T00:02:46;101205.94;;;25.12;57.63
55113;BME280;41006;50.920;3.456;2022-08-19T00:03:17;101199.91;;;25.35;57.28
55113;BME280;41006;50.920;3.456;2022-08-19T00:03:47;101200.25;;;25.69;56.02
55113;BME280;41006;50.920;3.456;2022-08-19T00:04:21;101205.69;;;25.69;55.96
55113;BME280;41006;50.920;3.456;2022-08-19T00:04:54;101204.59;;;25.71;55.88
55113;BME280;41006;50.920;3.456;2022-08-19T00:05:26;101201.44;;;25.77;55.80
55113;BME280;41006;50.920;3.456;2022-08-19T00:05:59;101199.69;;;25.89;55.05
55113;BME280;41006;50.920;3.456;2022-08-19T00:06:33;101196.53;;;25.18;56.77
55113;BME280;41006;50.920;3.456;2022-08-19T00:07:04;101203.75;;;25.32;56.71
55113;BME280;41006;50.920;3.456;2022-08-19T00:07:34;101200.03;;;25.46;56.58
55113;BME280;41006;50.920;3.456;2022-08-19T00:08:07;101206.59;;;25.03;57.98
55113;BME280;41006;50.920;3.456;2022-08-19T00:08:40;101200.56;;;25.25;57.47
55113;BME280;41006;50.920;3.456;2022-08-19T00:09:11;101202.03;;;25.04;57.81
55113;BME280;41006;50.920;3.456;2022-08-19T00:09:44;101202.16;;;25.15;57.34
55113;BME280;41006;50.920;3.456;2022-08-19T00:10:14;101198.50;;;25.29;57.17
55113;BME280;41006;50.920;3.456;2022-08-19T00:10:45;101206.25;;;25.08;57.76
55113;BME280;41006;50.920;3.456;2022-08-19T00:11:19;101207.63;;;24.88;58.36
55113;BME280;41006;50.920;3.456;2022-08-19T00:11:50;101205.59;;;25.04;57.82
55113;BME280;41006;50.920;3.456;2022-08-19T00:12:21;101211.44;;;24.85;58.37
55113;BME280;41006;50.920;3.456;2022-08-19T00:12:52;101202.38;;;25.12;57.60
55113;BME280;41006;50.920;3.456;2022-08-19T00:13:24;101205.34;;;25.22;57.33
55113;BME280;41006;50.920;3.456;2022-08-19T00:13:55;101204.19;;;24.99;57.83
55113;BME280;41006;50.920;3.456;2022-08-19T00:14:26;101205.34;;;25.35;57.40
55113;BME280;41006;50.920;3.456;2022-08-19T00:15:01;101199.78;;;25.23;56.99
55113;BME280;41006;50.920;3.456;2022-08-19T00:15:31;101205.44;;;25.20;57.14
55113;BME280;41006;50.920;3.456;2022-08-19T00:16:02;101208.97;;;24.95;58.26
55113;BME280;41006;50.920;3.456;2022-08-19T00:16:33;101203.25;;;25.00;58.00
55113;BME280;41006;50.920;3.456;2022-08-19T00:17:04;101203.78;;;25.05;58.05
55113;BME280;41006;50.920;3.456;2022-08-19T00:17:36;101208.09;;;24.94;57.79
55113;BME280;41006;50.920;3.456;2022-08-19T00:18:06;101206.41;;;24.79;58.60
55113;BME280;41006;50.920;3.456;2022-08-19T00:18:36;101208.13;;;25.07;58.31
55113;BME280;41006;50.920;3.456;2022-08-19T00:19:06;101216.84;;;25.25;57.32
55113;BME280;41006;50.920;3.456;2022-08-19T00:19:37;101204.50;;;25.34;57.22
55113;BME280;41006;50.920;3.456;2022-08-19T00:20:11;101212.81;;;25.18;57.08
55113;BME280;41006;50.920;3.456;2022-08-19T00:20:42;101215.97;;;25.25;57.06
55113;BME280;41006;50.920;3.456;2022-08-19T00:21:14;101209.72;;;25.37;56.88
55113;BME280;41006;50.920;3.456;2022-08-19T00:21:45;101209.59;;;25.39;56.86
55113;BME280;41006;50.920;3.456;2022-08-19T00:22:18;101210.25;;;25.29;57.11
55113;BME280;41006;50.920;3.456;2022-08-19T00:22:48;101217.97;;;24.96;57.67
55113;BME280;41006;50.920;3.456;2022-08-19T00:23:19;101217.25;;;25.19;57.69
55113;BME280;41006;50.920;3.456;2022-08-19T00:23:49;101215.19;;;25.10;57.55
55113;BME280;41006;50.920;3.456;2022-08-19T00:24:19;101214.13;;;25.25;57.27
55113;BME280;41006;50.920;3.456;2022-08-19T00:24:54;101219.97;;;25.19;57.16
55113;BME280;41006;50.920;3.456;2022-08-19T00:25:25;101222.78;;;25.05;57.69
55113;BME280;41006;50.920;3.456;2022-08-19T00:25:55;101218.66;;;25.12;57.66
55113;BME280;41006;50.920;3.456;2022-08-19T00:26:26;101213.75;;;25.32;56.73
55113;BME280;41006;50.920;3.456;2022-08-19T00:27:00;101222.22;;;25.65;56.03
55113;BME280;41006;50.920;3.456;2022-08-19T00:27:34;101224.13;;;25.25;56.77
55113;BME280;41006;50.920;3.456;2022-08-19T00:28:04;101223.09;;;25.00;57.50
55113;BME280;41006;50.920;3.456;2022-08-19T00:28:35;101224.47;;;24.93;58.33
55113;BME280;41006;50.920;3.456;2022-08-19T00:29:11;101220.97;;;24.78;58.90
55113;BME280;41006;50.920;3.456;2022-08-19T00:29:42;101215.81;;;25.01;57.99
55113;BME280;41006;50.920;3.456;2022-08-19T00:30:12;101223.00;;;25.02;57.76
55113;BME280;41006;50.920;3.456;2022-08-19T00:30:42;101222.97;;;24.62;59.03
55113;BME280;41006;50.920;3.456;2022-08-19T00:31:13;101225.97;;;24.84;58.74
55113;BME280;41006;50.920;3.456;2022-08-19T00:31:43;101221.31;;;24.86;58.83
55113;BME280;41006;50.920;3.456;2022-08-19T00:32:14;101221.16;;;25.02;58.19
55113;BME280;41006;50.920;3.456;2022-08-19T00:32:47;101220.28;;;24.62;59.48
55113;BME280;41006;50.920;3.456;2022-08-19T00:33:17;101213.09;;;24.61;59.21
55113;BME280;41006;50.920;3.456;2022-08-19T00:33:47;101217.06;;;24.82;58.84
55113;BME280;41006;50.920;3.456;2022-08-19T00:34:20;101220.19;;;25.03;58.17
55113;BME280;41006;50.920;3.456;2022-08-19T00:34:53;101225.81;;;25.00;58.24
55113;BME280;41006;50.920;3.456;2022-08-19T00:35:24;101219.22;;;25.17;57.76
55113;BME280;41006;50.920;3.456;2022-08-19T00:35:55;101219.94;;;25.34;57.30
55113;BME280;41006;50.920;3.456;2022-08-19T00:36:25;101220.06;;;25.05;57.87
55113;BME280;41006;50.920;3.456;2022-08-19T00:36:56;101218.13;;;24.80;58.51
55113;BME280;41006;50.920;3.456;2022-08-19T00:37:29;101220.19;;;24.76;58.99
55113;BME280;41006;50.920;3.456;2022-08-19T00:38:03;101222.44;;;24.97;58.65
55113;BME280;41006;50.920;3.456;2022-08-19T00:38:36;101217.97;;;24.96;58.59
55113;BME280;41006;50.920;3.456;2022-08-19T00:39:07;101227.78;;;25.11;57.89
55113;BME280;41006;50.920;3.456;2022-08-19T00:39:37;101219.00;;;25.20;57.77
55113;BME280;41006;50.920;3.456;2022-08-19T00:40:08;101213.25;;;25.12;57.69
55113;BME280;41006;50.920;3.456;2022-08-19T00:40:42;101221.53;;;25.23;57.35
55113;BME280;41006;50.920;3.456;2022-08-19T00:41:14;101224.38;;;25.35;56.96
55113;BME280;41006;50.920;3.456;2022-08-19T00:41:45;101219.81;;;25.35;57.26
55113;BME280;41006;50.920;3.456;2022-08-19T00:42:18;101220.19;;;25.03;57.89
55113;BME280;41006;50.920;3.456;2022-08-19T00:42:51;101223.19;;;24.99;58.18
55113;BME280;41006;50.920;3.456;2022-08-19T00:43:25;101224.84;;;24.74;59.16
55113;BME280;41006;50.920;3.456;2022-08-19T00:44:29;101220.44;;;24.86;58.67
55113;BME280;41006;50.920;3.456;2022-08-19T00:45:00;101220.72;;;24.68;59.06
55113;BME280;41006;50.920;3.456;2022-08-19T00:45:31;101223.91;;;24.75;59.13
55113;BME280;41006;50.920;3.456;2022-08-19T00:46:04;101226.88;;;24.98;58.81
55113;BME280;41006;50.920;3.456;2022-08-19T00:46:38;101219.97;;;24.52;59.92
55113;BME280;41006;50.920;3.456;2022-08-19T00:47:11;101218.84;;;24.42;60.27
55113;BME280;41006;50.920;3.456;2022-08-19T00:47:46;101218.56;;;24.32;60.59
55113;BME280;41006;50.920;3.456;2022-08-19T00:48:17;101212.41;;;24.15;61.69
55113;BME280;41006;50.920;3.456;2022-08-19T00:48:48;101218.56;;;24.32;61.11
55113;BME280;41006;50.920;3.456;2022-08-19T00:49:23;101219.88;;;24.53;60.34
55113;BME280;41006;50.920;3.456;2022-08-19T00:49:56;101214.69;;;24.36;60.56
55113;BME280;41006;50.920;3.456;2022-08-19T00:50:27;101212.97;;;24.35;61.03
55113;BME280;41006;50.920;3.456;2022-08-19T00:51:00;101216.59;;;24.48;60.65
55113;BME280;41006;50.920;3.456;2022-08-19T00:51:31;101228.53;;;24.31;61.12
55113;BME280;41006;50.920;3.456;2022-08-19T00:52:09;101217.56;;;24.47;60.52
55113;BME280;41006;50.920;3.456;2022-08-19T00:52:45;101213.47;;;24.13;61.60
55113;BME280;41006;50.920;3.456;2022-08-19T00:53:20;101214.28;;;24.00;62.44
55113;BME280;41006;50.920;3.456;2022-08-19T00:53:52;101217.22;;;24.25;61.72
55113;BME280;41006;50.920;3.456;2022-08-19T00:54:25;101212.91;;;24.49;60.98
55113;BME280;41006;50.920;3.456;2022-08-19T00:54:58;101220.28;;;24.62;60.39
55113;BME280;41006;50.920;3.456;2022-08-19T00:55:31;101223.53;;;24.67;60.06
55113;BME280;41006;50.920;3.456;2022-08-19T00:56:02;101221.00;;;24.22;61.62
55113;BME280;41006;50.920;3.456;2022-08-19T00:56:35;101213.91;;;24.34;60.96
55113;BME280;41006;50.920;3.456;2022-08-19T00:57:08;101219.34;;;24.19;61.58
55113;BME280;41006;50.920;3.456;2022-08-19T00:57:40;101215.31;;;23.98;62.32
55113;BME280;41006;50.920;3.456;2022-08-19T00:58:15;101214.84;;;23.77;63.53
55113;BME280;41006;50.920;3.456;2022-08-19T00:58:46;101214.75;;;23.78;63.51
55113;BME280;41006;50.920;3.456;2022-08-19T00:59:16;101210.88;;;23.82;63.59
55113;BME280;41006;50.920;3.456;2022-08-19T00:59:48;101211.84;;;23.67;63.73
55113;BME280;41006;50.920;3.456;2022-08-19T01:00:25;101215.44;;;23.82;63.51
55113;BME280;41006;50.920;3.456;2022-08-19T01:00:55;101217.69;;;24.31;61.90
55113;BME280;41006;50.920;3.456;2022-08-19T01:01:26;101216.22;;;24.40;61.84
55113;BME280;41006;50.920;3.456;2022-08-19T01:01:56;101218.31;;;24.49;61.12
55113;BME280;41006;50.920;3.456;2022-08-19T01:02:27;101218.41;;;24.20;61.69
55113;BME280;41006;50.920;3.456;2022-08-19T01:02:57;101220.72;;;24.27;61.74
55113;BME280;41006;50.920;3.456;2022-08-19T01:03:27;101218.81;;;24.00;62.56
55113;BME280;41006;50.920;3.456;2022-08-19T01:03:58;101220.25;;;24.20;62.28
55113;BME280;41006;50.920;3.456;2022-08-19T01:04:28;101221.66;;;24.40;61.68
55113;BME280;41006;50.920;3.456;2022-08-19T01:04:59;101221.22;;;24.61;60.72
55113;BME280;41006;50.920;3.456;2022-08-19T01:05:32;101225.72;;;24.74;60.56
55113;BME280;41006;50.920;3.456;2022-08-19T01:06:02;101228.75;;;24.70;60.48
55113;BME280;41006;50.920;3.456;2022-08-19T01:06:36;101223.69;;;24.78;60.08
55113;BME280;41006;50.920;3.456;2022-08-19T01:07:10;101228.13;;;24.79;59.72
55113;BME280;41006;50.920;3.456;2022-08-19T01:07:40;101226.81;;;24.30;61.74
55113;BME280;41006;50.920;3.456;2022-08-19T01:08:11;101225.53;;;24.36;61.92
55113;BME280;41006;50.920;3.456;2022-08-19T01:08:41;101226.19;;;24.39;61.69
55113;BME280;41006;50.920;3.456;2022-08-19T01:09:12;101225.88;;;24.44;61.42
55113;BME280;41006;50.920;3.456;2022-08-19T01:09:46;101222.25;;;24.31;61.79
55113;BME280;41006;50.920;3.456;2022-08-19T01:10:20;101223.75;;;24.49;61.10
55113;BME280;41006;50.920;3.456;2022-08-19T01:10:54;101224.19;;;24.70;60.22
55113;BME280;41006;50.920;3.456;2022-08-19T01:11:25;101223.84;;;24.62;61.02
55113;BME280;41006;50.920;3.456;2022-08-19T01:11:58;101225.50;;;24.65;60.23
55113;BME280;41006;50.920;3.456;2022-08-19T01:12:28;101220.66;;;24.55;60.95
55113;BME280;41006;50.920;3.456;2022-08-19T01:13:01;101228.53;;;24.73;60.50
55113;BME280;41006;50.920;3.456;2022-08-19T01:13:34;101225.31;;;24.53;60.67
55113;BME280;41006;50.920;3.456;2022-08-19T01:14:06;101228.13;;;24.37;61.40
55113;BME280;41006;50.920;3.456;2022-08-19T01:14:37;101232.34;;;24.29;61.99
55113;BME280;41006;50.920;3.456;2022-08-19T01:15:09;101225.69;;;24.47;61.40
55113;BME280;41006;50.920;3.456;2022-08-19T01:15:44;101230.09;;;24.77;60.68
55113;BME280;41006;50.920;3.456;2022-08-19T01:16:18;101221.47;;;24.43;61.42
55113;BME280;41006;50.920;3.456;2022-08-19T01:16:49;101220.34;;;24.18;62.13
55113;BME280;41006;50.920;3.456;2022-08-19T01:17:24;101227.19;;;24.24;61.89
55113;BME280;41006;50.920;3.456;2022-08-19T01:17:57;101230.91;;;24.23;62.10
55113;BME280;41006;50.920;3.456;2022-08-19T01:18:30;101223.63;;;24.09;62.49
55113;BME280;41006;50.920;3.456;2022-08-19T01:19:08;101219.13;;;23.95;63.11
55113;BME280;41006;50.920;3.456;2022-08-19T01:19:42;101225.31;;;23.97;63.54
55113;BME280;41006;50.920;3.456;2022-08-19T01:20:17;101222.78;;;23.80;63.83
55113;BME280;41006;50.920;3.456;2022-08-19T01:20:48;101233.16;;;24.02;63.14
55113;BME280;41006;50.920;3.456;2022-08-19T01:21:57;101226.16;;;24.27;62.73
55113;BME280;41006;50.920;3.456;2022-08-19T01:22:31;101227.00;;;24.27;62.76
55113;BME280;41006;50.920;3.456;2022-08-19T01:23:04;101215.41;;;24.11;62.56
55113;BME280;41006;50.920;3.456;2022-08-19T01:23:35;101232.81;;;24.21;62.45
55113;BME280;41006;50.920;3.456;2022-08-19T01:24:14;101222.06;;;23.76;63.56
55113;BME280;41006;50.920;3.456;2022-08-19T01:24:45;101226.44;;;23.64;64.67
55113;BME280;41006;50.920;3.456;2022-08-19T01:25:19;101221.16;;;23.92;64.04
55113;BME280;41006;50.920;3.456;2022-08-19T01:25:51;101224.41;;;23.68;64.45
55113;BME280;41006;50.920;3.456;2022-08-19T01:26:24;101225.47;;;23.80;64.31
55113;BME280;41006;50.920;3.456;2022-08-19T01:26:56;101216.41;;;23.95;64.03
55113;BME280;41006;50.920;3.456;2022-08-19T01:27:39;101217.72;;;23.45;65.58
55113;BME280;41006;50.920;3.456;2022-08-19T01:28:18;101224.22;;;23.57;65.38
55113;BME280;41006;50.920;3.456;2022-08-19T01:28:52;101217.41;;;23.50;65.42
55113;BME280;41006;50.920;3.456;2022-08-19T01:29:23;101222.56;;;23.54;65.68
55113;BME280;41006;50.920;3.456;2022-08-19T01:29:56;101216.28;;;23.68;64.78
55113;BME280;41006;50.920;3.456;2022-08-19T01:30:31;101216.78;;;24.04;64.07
55113;BME280;41006;50.920;3.456;2022-08-19T01:31:04;101224.19;;;24.29;62.77
55113;BME280;41006;50.920;3.456;2022-08-19T01:31:37;101225.69;;;24.62;61.31
55113;BME280;41006;50.920;3.456;2022-08-19T01:32:10;101228.41;;;24.62;61.07
55113;BME280;41006;50.920;3.456;2022-08-19T01:32:43;101226.16;;;24.27;62.14
55113;BME280;41006;50.920;3.456;2022-08-19T01:33:14;101221.09;;;24.35;62.40
55113;BME280;41006;50.920;3.456;2022-08-19T01:33:44;101223.38;;;24.41;62.29
55113;BME280;41006;50.920;3.456;2022-08-19T01:34:19;101222.63;;;24.39;61.98
55113;BME280;41006;50.920;3.456;2022-08-19T01:34:49;101215.88;;;24.17;62.66
55113;BME280;41006;50.920;3.456;2022-08-19T01:35:19;101220.06;;;24.23;62.80
55113;BME280;41006;50.920;3.456;2022-08-19T01:35:50;101228.66;;;24.30;62.17
55113;BME280;41006;50.920;3.456;2022-08-19T01:36:24;101217.47;;;23.93;63.50
55113;BME280;41006;50.920;3.456;2022-08-19T01:36:55;101228.25;;;24.36;62.63
55113;BME280;41006;50.920;3.456;2022-08-19T01:37:29;101227.69;;;24.72;61.51
55113;BME280;41006;50.920;3.456;2022-08-19T01:38:01;101221.50;;;24.14;62.62
55113;BME280;41006;50.920;3.456;2022-08-19T01:38:34;101223.63;;;24.24;62.60
55113;BME280;41006;50.920;3.456;2022-08-19T01:39:09;101222.31;;;24.44;62.21
55113;BME280;41006;50.920;3.456;2022-08-19T01:39:41;101224.31;;;24.54;61.47
55113;BME280;41006;50.920;3.456;2022-08-19T01:40:11;101229.63;;;24.29;61.99
55113;BME280;41006;50.920;3.456;2022-08-19T01:40:42;101222.81;;;24.36;62.19
55113;BME280;41006;50.920;3.456;2022-08-19T01:41:15;101221.88;;;24.23;62.12
55113;BME280;41006;50.920;3.456;2022-08-19T01:41:47;101221.16;;;23.92;63.15
55113;BME280;41006;50.920;3.456;2022-08-19T01:42:17;101218.91;;;23.84;63.95
55113;BME280;41006;50.920;3.456;2022-08-19T01:42:50;101218.59;;;23.74;64.59
55113;BME280;41006;50.920;3.456;2022-08-19T01:43:24;101218.16;;;23.82;64.52
55113;BME280;41006;50.920;3.456;2022-08-19T01:43:55;101215.16;;;23.87;64.18
55113;BME280;41006;50.920;3.456;2022-08-19T01:44:27;101214.56;;;23.81;64.46
55113;BME280;41006;50.920;3.456;2022-08-19T01:44:58;101223.53;;;24.25;62.70
55113;BME280;41006;50.920;3.456;2022-08-19T01:45:28;101214.28;;;23.86;63.62
55113;BME280;41006;50.920;3.456;2022-08-19T01:45:59;101220.44;;;23.59;64.70
55113;BME280;41006;50.920;3.456;2022-08-19T01:46:30;101211.03;;;23.51;65.08
55113;BME280;41006;50.920;3.456;2022-08-19T01:47:02;101222.59;;;23.24;66.20
55113;BME280;41006;50.920;3.456;2022-08-19T01:47:36;101224.59;;;23.51;65.57
55113;BME280;41006;50.920;3.456;2022-08-19T01:48:07;101214.94;;;23.90;64.17
55113;BME280;41006;50.920;3.456;2022-08-19T01:48:39;101222.41;;;24.00;63.81
55113;BME280;41006;50.920;3.456;2022-08-19T01:49:11;101225.97;;;24.15;63.00
55113;BME280;41006;50.920;3.456;2022-08-19T01:49:42;101226.81;;;24.16;62.77
55113;BME280;41006;50.920;3.456;2022-08-19T01:50:14;101229.25;;;24.20;62.66
55113;BME280;41006;50.920;3.456;2022-08-19T01:50:48;101227.00;;;24.27;62.40
55113;BME280;41006;50.920;3.456;2022-08-19T01:51:20;101231.13;;;24.47;61.91
55113;BME280;41006;50.920;3.456;2022-08-19T01:51:55;101236.19;;;24.39;61.70
55113;BME280;41006;50.920;3.456;2022-08-19T01:52:26;101229.00;;;24.38;62.15
55113;BME280;41006;50.920;3.456;2022-08-19T01:52:57;101229.22;;;24.35;61.86
55113;BME280;41006;50.920;3.456;2022-08-19T01:53:28;101234.66;;;24.35;61.95
55113;BME280;41006;50.920;3.456;2022-08-19T01:53:59;101220.75;;;24.39;61.94
55113;BME280;41006;50.920;3.456;2022-08-19T01:54:31;101226.53;;;24.20;62.04
55113;BME280;41006;50.920;3.456;2022-08-19T01:55:08;101222.22;;;23.89;63.32
55113;BME280;41006;50.920;3.456;2022-08-19T01:55:42;101219.88;;;24.12;63.17
55113;BME280;41006;50.920;3.456;2022-08-19T01:56:13;101223.91;;;24.19;62.25
55113;BME280;41006;50.920;3.456;2022-08-19T01:56:46;101219.97;;;23.81;63.50
55113;BME280;41006;50.920;3.456;2022-08-19T01:57:18;101219.88;;;23.83;63.91
55113;BME280;41006;50.920;3.456;2022-08-19T01:57:50;101223.44;;;24.12;63.18
55113;BME280;41006;50.920;3.456;2022-08-19T01:58:24;101219.22;;;23.94;63.08
55113;BME280;41006;50.920;3.456;2022-08-19T01:59:00;101216.06;;;23.71;64.28
55113;BME280;41006;50.920;3.456;2022-08-19T01:59:33;101212.53;;;23.85;64.08
55113;BME280;41006;50.920;3.456;2022-08-19T02:00:05;101225.00;;;24.02;63.13
55113;BME280;41006;50.920;3.456;2022-08-19T02:00:39;101224.25;;;23.86;63.69
55113;BME280;41006;50.920;3.456;2022-08-19T02:01:10;101220.59;;;23.56;64.48
55113;BME280;41006;50.920;3.456;2022-08-19T02:01:43;101224.28;;;23.70;64.50
55113;BME280;41006;50.920;3.456;2022-08-19T02:02:13;101220.59;;;23.56;64.81
55113;BME280;41006;50.920;3.456;2022-08-19T02:02:47;101220.34;;;23.46;65.23
55113;BME280;41006;50.920;3.456;2022-08-19T02:03:17;101227.97;;;23.54;64.81
55113;BME280;41006;50.920;3.456;2022-08-19T02:03:48;101225.44;;;23.37;65.21
55113;BME280;41006;50.920;3.456;2022-08-19T02:04:18;101227.56;;;23.46;65.72
55113;BME280;41006;50.920;3.456;2022-08-19T02:04:50;101222.00;;;23.63;64.84
55113;BME280;41006;50.920;3.456;2022-08-19T02:05:21;101231.25;;;23.59;64.52
55113;BME280;41006;50.920;3.456;2022-08-19T02:05:55;101222.59;;;23.83;63.97
55113;BME280;41006;50.920;3.456;2022-08-19T02:06:26;101227.81;;;24.15;63.23
55113;BME280;41006;50.920;3.456;2022-08-19T02:06:57;101234.47;;;24.24;62.56
55113;BME280;41006;50.920;3.456;2022-08-19T02:07:29;101233.91;;;24.18;62.79
55113;BME280;41006;50.920;3.456;2022-08-19T02:08:00;101231.19;;;24.18;62.85
55113;BME280;41006;50.920;3.456;2022-08-19T02:08:35;101225.78;;;24.18;62.52
55113;BME280;41006;50.920;3.456;2022-08-19T02:09:06;101228.88;;;24.12;62.40
55113;BME280;41006;50.920;3.456;2022-08-19T02:09:36;101227.50;;;23.76;63.73
55113;BME280;41006;50.920;3.456;2022-08-19T02:10:08;101221.72;;;23.68;64.05
55113;BME280;41006;50.920;3.456;2022-08-19T02:10:42;101226.25;;;23.68;64.40
55113;BME280;41006;50.920;3.456;2022-08-19T02:11:21;101229.44;;;23.74;64.06
55113;BME280;41006;50.920;3.456;2022-08-19T02:11:55;101228.78;;;23.99;62.93
55113;BME280;41006;50.920;3.456;2022-08-19T02:12:25;101223.06;;;24.04;63.19
55113;BME280;41006;50.920;3.456;2022-08-19T02:12:55;101230.28;;;24.18;62.20
55113;BME280;41006;50.920;3.456;2022-08-19T02:13:26;101237.38;;;24.06;62.62
55113;BME280;41006;50.920;3.456;2022-08-19T02:13:59;101230.09;;;23.78;63.10
55113;BME280;41006;50.920;3.456;2022-08-19T02:14:34;101226.50;;;23.63;64.46
55113;BME280;41006;50.920;3.456;2022-08-19T02:15:05;101232.34;;;23.57;64.66
55113;BME280;41006;50.920;3.456;2022-08-19T02:15:38;101225.47;;;23.65;64.49
55113;BME280;41006;50.920;3.456;2022-08-19T02:16:08;101228.72;;;23.87;63.84
55113;BME280;41006;50.920;3.456;2022-08-19T02:16:38;101231.19;;;23.75;63.73
55113;BME280;41006;50.920;3.456;2022-08-19T02:17:10;101229.66;;;24.00;63.19
55113;BME280;41006;50.920;3.456;2022-08-19T02:17:40;101234.00;;;24.02;63.13
55113;BME280;41006;50.920;3.456;2022-08-19T02:18:11;101230.09;;;23.78;63.56
55113;BME280;41006;50.920;3.456;2022-08-19T02:18:41;101225.34;;;23.38;64.95
55113;BME280;41006;50.920;3.456;2022-08-19T02:19:11;101227.63;;;23.16;66.06
55113;BME280;41006;50.920;3.456;2022-08-19T02:19:41;101230.22;;;23.62;64.66
55113;BME280;41006;50.920;3.456;2022-08-19T02:20:14;101221.06;;;23.34;65.26
55113;BME280;41006;50.920;3.456;2022-08-19T02:20:47;101222.06;;;23.48;64.99
55113;BME280;41006;50.920;3.456;2022-08-19T02:21:21;101227.34;;;23.35;65.20
55113;BME280;41006;50.920;3.456;2022-08-19T02:21:51;101230.00;;;23.79;64.11
55113;BME280;41006;50.920;3.456;2022-08-19T02:22:22;101229.63;;;23.57;64.41
55113;BME280;41006;50.920;3.456;2022-08-19T02:22:53;101226.50;;;23.63;64.19
55113;BME280;41006;50.920;3.456;2022-08-19T02:23:25;101219.00;;;23.82;63.66
55113;BME280;41006;50.920;3.456;2022-08-19T02:23:56;101224.19;;;23.71;63.93
55113;BME280;41006;50.920;3.456;2022-08-19T02:24:29;101228.66;;;23.58;64.03
55113;BME280;41006;50.920;3.456;2022-08-19T02:25:00;101226.50;;;23.63;64.50
55113;BME280;41006;50.920;3.456;2022-08-19T02:25:30;101221.75;;;23.38;64.94
55113;BME280;41006;50.920;3.456;2022-08-19T02:26:01;101227.09;;;23.54;65.14
55113;BME280;41006;50.920;3.456;2022-08-19T02:26:31;101220.72;;;23.69;64.21
55113;BME280;41006;50.920;3.456;2022-08-19T02:27:02;101216.38;;;23.67;64.43
55113;BME280;41006;50.920;3.456;2022-08-19T02:27:32;101211.31;;;23.32;65.32
55113;BME280;41006;50.920;3.456;2022-08-19T02:28:03;101208.53;;;23.33;65.61
55113;BME280;41006;50.920;3.456;2022-08-19T02:28:34;101217.00;;;23.27;65.73
55113;BME280;41006;50.920;3.456;2022-08-19T02:29:07;101213.63;;;23.23;65.93
55113;BME280;41006;50.920;3.456;2022-08-19T02:29:37;101216.53;;;23.04;66.73
55113;BME280;41006;50.920;3.456;2022-08-19T02:30:12;101214.06;;;23.16;66.91
55113;BME280;41006;50.920;3.456;2022-08-19T02:30:44;101209.09;;;23.38;65.77
55113;BME280;41006;50.920;3.456;2022-08-19T02:31:16;101214.84;;;23.18;66.54
55113;BME280;41006;50.920;3.456;2022-08-19T02:31:50;101204.84;;;23.04;66.89
55113;BME280;41006;50.920;3.456;2022-08-19T02:32:20;101212.91;;;23.20;66.15
55113;BME280;41006;50.920;3.456;2022-08-19T02:32:53;101208.41;;;23.04;67.17
55113;BME280;41006;50.920;3.456;2022-08-19T02:33:24;101210.44;;;23.31;66.29
55113;BME280;41006;50.920;3.456;2022-08-19T02:33:57;101208.78;;;23.43;65.60
55113;BME280;41006;50.920;3.456;2022-08-19T02:34:28;101210.66;;;23.42;65.66
55113;BME280;41006;50.920;3.456;2022-08-19T02:35:01;101211.72;;;23.40;65.26
55113;BME280;41006;50.920;3.456;2022-08-19T02:35:32;101213.03;;;23.33;65.93
55113;BME280;41006;50.920;3.456;2022-08-19T02:36:05;101210.44;;;23.31;66.03
55113;BME280;41006;50.920;3.456;2022-08-19T02:36:36;101218.72;;;23.14;66.50
55113;BME280;41006;50.920;3.456;2022-08-19T02:37:07;101208.16;;;23.09;66.81
55113;BME280;41006;50.920;3.456;2022-08-19T02:37:57;101213.44;;;23.26;65.86
55113;BME280;41006;50.920;3.456;2022-08-19T02:38:47;101210.25;;;23.04;67.18
55113;BME280;41006;50.920;3.456;2022-08-19T02:39:19;101213.72;;;22.76;67.73
55113;BME280;41006;50.920;3.456;2022-08-19T02:39:50;101207.97;;;22.82;68.05
55113;BME280;41006;50.920;3.456;2022-08-19T02:40:22;101211.38;;;23.16;66.96
55113;BME280;41006;50.920;3.456;2022-08-19T02:40:54;101206.94;;;23.29;66.07
55113;BME280;41006;50.920;3.456;2022-08-19T02:41:26;101212.06;;;23.19;66.41
55113;BME280;41006;50.920;3.456;2022-08-19T02:41:56;101210.34;;;23.33;66.21
55113;BME280;41006;50.920;3.456;2022-08-19T02:42:29;101207.94;;;23.42;65.59
55113;BME280;41006;50.920;3.456;2022-08-19T02:43:02;101213.47;;;23.55;65.32
55113;BME280;41006;50.920;3.456;2022-08-19T02:43:35;101212.69;;;23.68;65.01
55113;BME280;41006;50.920;3.456;2022-08-19T02:44:10;101211.56;;;23.86;64.01
55113;BME280;41006;50.920;3.456;2022-08-19T02:44:42;101211.94;;;23.80;64.29
55113;BME280;41006;50.920;3.456;2022-08-19T02:45:15;101213.19;;;23.74;64.38
55113;BME280;41006;50.920;3.456;2022-08-19T02:45:49;101214.78;;;23.48;65.15
55113;BME280;41006;50.920;3.456;2022-08-19T02:46:23;101213.72;;;23.22;66.27
55113;BME280;41006;50.920;3.456;2022-08-19T02:46:54;101211.00;;;23.36;65.83
55113;BME280;41006;50.920;3.456;2022-08-19T02:47:25;101216.03;;;23.28;66.44
55113;BME280;41006;50.920;3.456;2022-08-19T02:47:55;101210.41;;;23.17;66.44
55113;BME280;41006;50.920;3.456;2022-08-19T02:48:27;101214.81;;;23.34;65.97
55113;BME280;41006;50.920;3.456;2022-08-19T02:49:00;101216.16;;;23.41;65.71
55113;BME280;41006;50.920;3.456;2022-08-19T02:49:31;101211.84;;;23.67;64.72